Flight Track Log - Related Links

Times and Time Zones

All times are in EDT time to prevent confusion due to time zone crossing. See the SWA2383 flight status page for this flight to view local times or setup timezone preferences in your user account.

Time Position Orientation Groundspeed Altitude Reporting Facility
EDT Latitude Longitude Course Direction KTS MPH feet Rate Location/Type
Sat 08:18:39 AM 39.1833 -76.7500 270° West 186 214 2,700  Level Potomac TRACON
Sat 08:19:27 AM 39.1833 -76.8167 270° West 226 260 4,500 3,111 Climbing Potomac TRACON
Sat 08:20:27 AM 39.2000 -76.9000 284° West 264 304 8,300 3,368 Climbing Potomac TRACON
Sat 08:21:21 AM 39.2167 -76.9833 284° West 287 330 10,900 2,643 Climbing Potomac TRACON
Sat 08:23:15 AM 39.1675 -77.1978 254° West 337 388 15,700 2,483 Climbing Washington Center
Sat 08:24:15 AM 39.0767 -77.2733 213° Southwest 340 391 18,100 2,628 Climbing Washington Center
Sat 08:25:16 AM 38.9961 -77.3678 222° Southwest 375 432 21,000 2,826 Climbing Washington Center
Sat 08:26:16 AM 38.9711 -77.5033 257° West 375 432 23,800 2,579 Climbing Washington Center
Sat 08:27:17 AM 38.9478 -77.6603 259° West 395 455 26,200 2,017 Climbing Washington Center
Sat 08:28:15 AM 38.9247 -77.7875 257° West 411 473 27,800 2,288 Climbing Washington Center
Sat 08:29:15 AM 38.8986 -77.9522 259° West 421 484 30,700 3,025 Climbing Washington Center
Sat 08:30:16 AM 38.8753 -78.0794 257° West 405 466 33,900 2,311 Climbing Washington Center
Sat 08:31:17 AM 38.8558 -78.2094 259° West 387 445 35,400 1,361 Climbing Washington Center
Sat 08:32:15 AM 38.8531 -78.3347 268° West 369 425 36,600 807 Climbing Washington Center
Sat 08:33:16 AM 38.8519 -78.4625 269° West 364 419 37,000 197 Climbing Washington Center
Sat 08:34:17 AM 38.8508 -78.5931 269° West 364 419 37,000  Level Washington Center
Sat 08:35:17 AM 38.8478 -78.7208 268° West 364 419 37,000  Level Washington Center
Sat 08:36:15 AM 38.8483 -78.8517 270° West 364 419 37,000  Level Washington Center
Sat 08:37:17 AM 38.8469 -78.9794 269° West 364 419 37,000  Level Washington Center
Sat 08:38:17 AM 38.8433 -79.1100 268° West 364 419 37,000  Level Washington Center
Sat 08:39:17 AM 38.8414 -79.2403 269° West 364 419 37,000  Level Washington Center
Sat 08:40:15 AM 38.8375 -79.3628 268° West 364 419 37,000  Level Washington Center
Sat 08:41:15 AM 38.8356 -79.4906 269° West 364 419 37,000  Level Washington Center
Sat 08:42:16 AM 38.8333 -79.6239 269° West 372 428 37,000  Level Washington Center
Sat 08:43:15 AM 38.8333 -79.7492 270° West 372 428 37,000  Level Washington Center
Sat 08:44:15 AM 38.8292 -79.8633 267° West 365 420 37,000 308 Level Washington Center
Sat 08:46:30 AM 38.8194 -80.1561 268° West 357 411 38,000 306 Climbing Indianapolis Center
Sat 08:47:31 AM 38.8150 -80.2861 268° West 364 419 38,000  Level Indianapolis Center
Sat 08:48:32 AM 38.8114 -80.4161 268° West 364 419 38,000  Level Indianapolis Center
Sat 08:49:33 AM 38.8081 -80.5456 268° West 365 420 38,000  Level Indianapolis Center
Sat 08:50:34 AM 38.8036 -80.6742 268° West 363 418 38,000  Level Indianapolis Center
Sat 08:51:35 AM 38.8000 -80.8033 268° West 364 419 38,000  Level Indianapolis Center
Sat 08:52:36 AM 38.7956 -80.9347 268° West 365 420 38,000  Level Indianapolis Center
Sat 08:53:37 AM 38.7911 -81.0619 267° West 363 418 38,000  Level Indianapolis Center
Sat 08:54:38 AM 38.7869 -81.1900 268° West 360 414 38,000  Level Indianapolis Center
Sat 08:55:39 AM 38.7828 -81.3194 268° West 363 418 38,000  Level Indianapolis Center
Sat 08:56:40 AM 38.7764 -81.4689 267° West 360 414 38,000  Level Indianapolis Center
Sat 08:57:42 AM 38.7725 -81.5986 268° West 363 418 38,000  Level Indianapolis Center
Sat 08:58:43 AM 38.7672 -81.7225 267° West 363 418 38,000  Level Indianapolis Center
Sat 08:59:44 AM 38.7622 -81.8525 267° West 365 420 38,000  Level Indianapolis Center
Sat 09:00:45 AM 38.7567 -81.9833 267° West 368 423 38,000  Level Indianapolis Center
Sat 09:01:47 AM 38.7519 -82.1142 267° West 369 425 38,000  Level Indianapolis Center
Sat 09:02:48 AM 38.7464 -82.2456 267° West 369 425 38,000  Level Indianapolis Center
Sat 09:03:49 AM 38.7414 -82.3786 267° West 372 428 38,000  Level Indianapolis Center
Sat 09:04:50 AM 38.7364 -82.5103 267° West 371 427 38,000  Level Indianapolis Center
Sat 09:05:51 AM 38.7303 -82.6419 267° West 372 428 38,000  Level Indianapolis Center
Sat 09:06:52 AM 38.7419 -82.7972 276° West 366 421 38,000  Level Indianapolis Center
Sat 09:07:53 AM 38.7586 -82.9256 279° West 365 420 38,000  Level Indianapolis Center
Sat 09:08:55 AM 38.7758 -83.0528 280° West 363 418 38,000  Level Indianapolis Center
Sat 09:09:56 AM 38.7936 -83.1814 280° West 363 418 38,000  Level Indianapolis Center
Sat 09:10:57 AM 38.8111 -83.3167 279° West 362 417 38,000  Level Indianapolis Center
Sat 09:11:58 AM 38.8281 -83.4442 280° West 360 414 38,000  Level Indianapolis Center
Sat 09:12:59 AM 38.8447 -83.5697 280° West 355 409 38,000 49 Level Indianapolis Center
Sat 09:14:00 AM 38.8608 -83.6944 279° West 352 405 38,100 390 Climbing Indianapolis Center
Sat 09:15:02 AM 38.8758 -83.8186 279° West 349 402 38,800 439 Climbing Indianapolis Center
Sat 09:16:03 AM 38.8933 -83.9492 280° West 363 418 39,000 98 Climbing Indianapolis Center
Sat 09:17:04 AM 38.9092 -84.0781 279° West 364 419 39,000  Level Indianapolis Center
Sat 09:18:05 AM 38.9267 -84.2081 280° West 364 419 39,000  Level Indianapolis Center
Sat 09:19:07 AM 38.9411 -84.3367 278° West 362 417 39,000  Level Indianapolis Center
Sat 09:20:08 AM 38.9583 -84.4694 280° West 368 423 39,000  Level Indianapolis Center
Sat 09:21:09 AM 38.9739 -84.6003 279° West 367 422 39,000  Level Indianapolis Center
Sat 09:22:10 AM 38.9897 -84.7317 279° West 368 423 39,000  Level Indianapolis Center
Sat 09:23:12 AM 39.0056 -84.8606 279° West 364 419 39,000  Level Indianapolis Center
Sat 09:24:13 AM 39.0206 -84.9897 279° West 361 415 39,000  Level Indianapolis Center
Sat 09:25:14 AM 39.0358 -85.1181 279° West 361 415 39,000  Level Indianapolis Center
Sat 09:26:16 AM 39.0506 -85.2444 279° West 357 411 39,000  Level Indianapolis Center
Sat 09:27:17 AM 39.0647 -85.3717 278° West 357 411 39,000 344 Level Indianapolis Center
Sat 09:28:18 AM 39.0803 -85.5017 279° West 363 418 39,700 488 Climbing Indianapolis Center
Sat 09:29:20 AM 39.0967 -85.6583 278° West 377 434 40,000 146 Climbing Indianapolis Center
Sat 09:30:21 AM 39.1117 -85.7936 278° West 379 436 40,000  Level Indianapolis Center
Sat 09:31:23 AM 39.1269 -85.9283 278° West 379 436 40,000  Level Indianapolis Center
Sat 09:32:25 AM 39.1419 -86.0644 278° West 380 437 40,000  Level Indianapolis Center
Sat 09:33:26 AM 39.1561 -86.2003 278° West 380 437 40,000  Level Indianapolis Center
Sat 09:34:27 AM 39.1703 -86.3369 278° West 381 438 40,000  Level Indianapolis Center
Sat 09:35:28 AM 39.1858 -86.4750 278° West 384 442 40,000  Level Indianapolis Center
Sat 09:36:30 AM 39.2000 -86.6150 277° West 389 448 40,000  Level Indianapolis Center
Sat 09:37:31 AM 39.2136 -86.7533 277° West 387 445 40,000  Level Indianapolis Center
Sat 09:38:33 AM 39.2281 -86.8939 278° West 389 448 40,000  Level Indianapolis Center
Sat 09:39:34 AM 39.2422 -87.0333 278° West 389 448 40,000  Level Indianapolis Center
Sat 09:40:36 AM 39.2558 -87.1717 277° West 388 447 40,000  Level Indianapolis Center
Sat 09:41:37 AM 39.2694 -87.3122 277° West 391 450 40,000  Level Indianapolis Center
Sat 09:42:38 AM 39.2850 -87.4756 277° West 392 451 40,000  Level Indianapolis Center
Sat 09:43:40 AM 39.2986 -87.6172 277° West 393 452 40,000  Level Indianapolis Center
Sat 09:44:41 AM 39.3094 -87.7358 277° West 392 451 40,000  Level Indianapolis Center
Sat 09:45:43 AM 39.3253 -87.9050 277° West 396 456 40,000  Level Indianapolis Center
Sat 09:46:19 AM 39.3328 -87.9903 277° West 394 453 40,000  Level Kansas City Center
Sat 09:47:20 AM 39.3450 -88.1308 276° West 394 453 40,000  Level Kansas City Center
Sat 09:48:22 AM 39.3572 -88.2719 276° West 394 453 40,000  Level Kansas City Center
Sat 09:49:23 AM 39.3711 -88.4158 277° West 400 460 40,000  Level Kansas City Center
Sat 09:50:24 AM 39.3839 -88.5600 277° West 404 465 40,000  Level Kansas City Center
Sat 09:51:25 AM 39.3933 -88.6928 275° West 404 465 40,000  Level Kansas City Center
Sat 09:52:27 AM 39.4072 -88.8397 277° West 409 471 40,000  Level Kansas City Center
Sat 09:53:28 AM 39.4192 -88.9928 276° West 409 471 40,000  Level Kansas City Center
Sat 09:54:29 AM 39.4322 -89.1397 277° West 410 472 40,000  Level Kansas City Center
Sat 09:55:30 AM 39.4453 -89.3036 276° West 407 468 40,000  Level Kansas City Center
Sat 09:56:31 AM 39.4569 -89.4469 276° West 404 465 40,000  Level Kansas City Center
Sat 09:57:33 AM 39.4672 -89.5908 275° West 405 466 40,000  Level Kansas City Center
Sat 09:58:34 AM 39.4778 -89.7319 276° West 399 459 40,000  Level Kansas City Center
Sat 09:59:35 AM 39.4894 -89.8747 276° West 400 460 40,000  Level Kansas City Center
Sat 10:00:36 AM 39.5000 -90.0186 275° West 404 465 40,000  Level Kansas City Center
Sat 10:01:37 AM 39.5114 -90.1622 276° West 404 465 40,000  Level Kansas City Center
Sat 10:02:39 AM 39.5228 -90.3344 275° West 402 463 40,000  Level Kansas City Center
Sat 10:03:40 AM 39.5328 -90.4775 275° West 402 463 40,000  Level Kansas City Center
Sat 10:04:41 AM 39.5422 -90.6192 275° West 400 460 40,000  Level Kansas City Center
Sat 10:05:42 AM 39.5519 -90.7650 275° West 404 465 40,000 -49 Level Kansas City Center
Sat 10:06:44 AM 39.5611 -90.9086 275° West 404 465 39,900 -537 Descending Kansas City Center
Sat 10:07:45 AM 39.5711 -91.0511 275° West 402 463 38,900 -934 Descending Kansas City Center
Sat 10:08:46 AM 39.5797 -91.1917 275° West 396 456 38,000 -439 Descending Kansas City Center
Sat 10:09:48 AM 39.5906 -91.3506 275° West 394 453 38,000  Level Kansas City Center
Sat 10:10:49 AM 39.5992 -91.4931 275° West 397 457 38,000  Level Kansas City Center
Sat 10:11:50 AM 39.6075 -91.6342 274° West 397 457 38,000  Level Kansas City Center
Sat 10:12:51 AM 39.6150 -91.7794 274° West 401 461 38,000  Level Kansas City Center
Sat 10:13:53 AM 39.6169 -91.9231 271° West 400 460 38,000  Level Kansas City Center
Sat 10:14:54 AM 39.6192 -92.0667 271° West 401 461 38,000  Level Kansas City Center
Sat 10:15:55 AM 39.6211 -92.2119 271° West 402 463 38,000  Level Kansas City Center
Sat 10:16:57 AM 39.6228 -92.3853 271° West 402 463 38,000 -341 Level Kansas City Center
Sat 10:17:58 AM 39.6247 -92.5303 271° West 403 464 37,300 -1,574 Descending Kansas City Center
Sat 10:18:59 AM 39.6261 -92.6825 271° West 409 471 34,800 -2,244 Descending Kansas City Center
Sat 10:20:01 AM 39.6269 -92.8308 270° West 413 475 32,700 -2,000 Descending Kansas City Center
Sat 10:21:02 AM 39.6286 -92.9731 271° West 408 470 30,700 -1,918 Descending Kansas City Center
Sat 10:22:03 AM 39.6283 -93.1067 270° West 389 448 28,800 -1,951 Descending Kansas City Center
Sat 10:23:05 AM 39.6292 -93.2511 270° West 395 455 26,700 -2,000 Descending Kansas City Center
Sat 10:24:06 AM 39.6300 -93.3967 270° West 404 465 24,700 -1,918 Descending Kansas City Center
Sat 10:25:07 AM 39.6303 -93.5358 270° West 397 457 22,800 -2,016 Descending Kansas City Center
Sat 10:26:08 AM 39.6306 -93.6986 270° West 378 435 20,600 -1,951 Descending Kansas City Center
Sat 10:27:10 AM 39.6300 -93.8261 270° West 367 422 18,800 -1,512 Descending Kansas City Center
Sat 10:28:11 AM 39.5978 -93.9389 250° West 355 409 17,500 -1,770 Descending Kansas City Center
Sat 10:29:12 AM 39.5392 -94.0572 237° Southwest 348 400 15,200 -1,967 Descending Kansas City Center
Sat 10:30:13 AM 39.4886 -94.1575 237° Southwest 348 400 13,500 -1,561 Descending Kansas City Center
Sat 10:31:15 AM 39.4297 -94.2719 236° Southwest 342 394 12,000 -780 Descending Kansas City Center
Sat 10:32:16 AM 39.3844 -94.3614 237° Southwest 315 362 11,900 -738 Descending Kansas City Center
Sat 10:33:17 AM 39.3403 -94.4492 237° Southwest 304 350 10,500 -1,659 Descending Kansas City Center
Sat 10:34:19 AM 39.2886 -94.5483 236° Southwest 298 343 8,500 -1,902 Descending Kansas City Center
Sat 10:35:20 AM 39.2361 -94.6183 226° Southwest 288 331 6,600 -1,574 Descending Kansas City Center
Sat 10:36:21 AM 39.1639 -94.6444 196° South 281 323 5,300 -934 Descending Kansas City Center
Sat 10:37:22 AM 39.1025 -94.6903 210° Southwest 239 275 4,700 -780 Descending Kansas City Center
Sat 10:38:24 AM 39.1175 -94.7592 286° West 232 267 3,700 -829 Descending Kansas City Center
Sat 10:39:25 AM 39.1725 -94.7417 14° North 182 209 3,000 -639 Descending Kansas City Center
Sat 10:40:26 AM 39.2153 -94.7289 13° North 170 196 2,400 -634 Descending Kansas City Center
Sat 10:41:28 AM 39.2500 -94.7186 13° North 137 158 1,700 -683 Descending Kansas City Center
Sat 10:42:29 AM 39.2842 -94.7092 12° North 132 152 1,000 -689 Descending Kansas City Center

Login

Don't have an account? Register now (free) for customized features, flight alerts, and more!